Gabby Miller — WDE3399 — position and weather

sailwx.info

Track history (hours):
 
Tides and Currents Weather Stations Pressure Air Temp Water Temp Dewpoint Dewpoint Depression Visibility Wind Speed Wind Dir Waves Ship Positions

Gabby Miller

Owner: Miller's Launch, Staten Island, NY. More information available from US FCC via Universal Licensing System and Coast Guard Vessel Documentation Center.

Last reported at 2018-Jun-25 13:10 UTC. Time now 2018-Jun-25 19:48 UTC.
Position N 40°38' W 074°04'.

Length 7 m; draft 2 m.

Type: Fishing. MMSI: 367338610.

Date/timePositionNaut miles runAvg speedWind from/ knotsBaromVisibWave heightAir tempDewpointWater temp
2018-Jun-25 13:10N 40°38' W 074°04'1 6.1
2018-Jun-25 12:58N 40°39' W 074°03'3 6.1
2018-Jun-25 12:30N 40°42' W 074°02'3 5.7
2018-Jun-25 12:00N 40°45' W 074°01'1 1.4
2018-Jun-25 11:20N 40°46' W 074°01'0 0.6
2018-Jun-25 10:57N 40°46' W 074°01'1 0.6
2018-Jun-25 09:10N 40°45' W 074°01'1 6.2
2018-Jun-25 09:00N 40°44' W 074°02'3 6.1
2018-Jun-25 08:30N 40°41' W 074°03'3 5.6
2018-Jun-25 08:00N 40°38' W 074°04'  
2018-Jun-21 16:38N 40°38' W 074°04'1 8.1
2018-Jun-21 16:27N 40°40' W 074°03'3 6.8
2018-Jun-21 16:00N 40°42' W 074°02'1 2.3
2018-Jun-21 15:30N 40°43' W 074°02'0 0.2
2018-Jun-21 15:00N 40°43' W 074°02'0 0.0
2018-Jun-21 14:30N 40°43' W 074°02'0 0.0
2018-Jun-21 14:00N 40°43' W 074°02'0 0.0
2018-Jun-21 13:30N 40°43' W 074°02'0 0.0
2018-Jun-21 13:00N 40°43' W 074°02'0 0.0
2018-Jun-21 12:30N 40°43' W 074°02'0 0.0
2018-Jun-21 12:00N 40°43' W 074°02'0 0.0
2018-Jun-21 11:30N 40°43' W 074°02'0 0.3
2018-Jun-21 11:00N 40°44' W 074°02'0 0.1
2018-Jun-21 10:30N 40°44' W 074°02'1 2.9
2018-Jun-21 10:00N 40°42' W 074°02'3 6.4
2018-Jun-21 09:30N 40°39' W 074°04'1 0.1
2018-Jun-20 15:56N 40°38' W 074°04'2 4.5
2018-Jun-20 15:30N 40°40' W 074°03'3 5.6
2018-Jun-20 15:00N 40°42' W 074°00'1 1.9
2018-Jun-20 14:30N 40°41' W 074°01'3 6.3
2018-Jun-20 14:00N 40°38' W 074°04'  
2018-Jun-15 21:33N 40°38' W 074°04'0 0.1
2018-Jun-15 21:30N 40°38' W 074°04'0 0.4
2018-Jun-15 21:00N 40°38' W 074°04'0 0.3
2018-Jun-15 20:18N 40°38' W 074°04'0 0.2
2018-Jun-15 20:00N 40°38' W 074°04'0 0.2
2018-Jun-15 19:30N 40°38' W 074°04'0 0.0
2018-Jun-15 19:00N 40°38' W 074°04'0 0.1
2018-Jun-15 18:29N 40°38' W 074°04'1 2.0
2018-Jun-15 18:00N 40°39' W 074°04'2 4.5
2018-Jun-15 17:30N 40°41' W 074°03'0 0.5
2018-Jun-15 17:00N 40°41' W 074°03'0 0.0
2018-Jun-15 16:30N 40°41' W 074°03'0 0.7
2018-Jun-15 16:00N 40°41' W 074°03'3 5.0
2018-Jun-15 15:30N 40°39' W 074°04'1 1.2
2018-Jun-15 14:54N 40°38' W 074°04'0 0.1
2018-Jun-15 14:30N 40°38' W 074°04'0 0.0
2018-Jun-15 14:00N 40°38' W 074°04'2 3.0
2018-Jun-15 13:29N 40°40' W 074°03'  
Track history (hours):
 
Tides and Currents Weather Stations Pressure Air Temp Water Temp Dewpoint Dewpoint Depression Visibility Wind Speed Wind Dir Waves Ship Positions

Gabby Miller

Owner: Miller's Launch, Staten Island, NY. More information available from US FCC via Universal Licensing System and Coast Guard Vessel Documentation Center.

Last reported at 2018-Jun-25 13:10 UTC. Time now 2018-Jun-25 19:48 UTC.
Position N 40°38' W 074°04'.

Length 7 m; draft 2 m.

Type: Fishing. MMSI: 367338610.

Date/timePositionNaut miles runAvg speedWind from/ knotsBaromVisibWave heightAir tempDewpointWater temp
2018-Jun-25 13:10N 40°38' W 074°04'1 6.1
2018-Jun-25 12:58N 40°39' W 074°03'3 6.1
2018-Jun-25 12:30N 40°42' W 074°02'3 5.7
2018-Jun-25 12:00N 40°45' W 074°01'1 1.4
2018-Jun-25 11:20N 40°46' W 074°01'0 0.6
2018-Jun-25 10:57N 40°46' W 074°01'1 0.6
2018-Jun-25 09:10N 40°45' W 074°01'1 6.2
2018-Jun-25 09:00N 40°44' W 074°02'3 6.1
2018-Jun-25 08:30N 40°41' W 074°03'3 5.6
2018-Jun-25 08:00N 40°38' W 074°04'  
2018-Jun-21 16:38N 40°38' W 074°04'1 8.1
2018-Jun-21 16:27N 40°40' W 074°03'3 6.8
2018-Jun-21 16:00N 40°42' W 074°02'1 2.3
2018-Jun-21 15:30N 40°43' W 074°02'0 0.2
2018-Jun-21 15:00N 40°43' W 074°02'0 0.0
2018-Jun-21 14:30N 40°43' W 074°02'0 0.0
2018-Jun-21 14:00N 40°43' W 074°02'0 0.0
2018-Jun-21 13:30N 40°43' W 074°02'0 0.0
2018-Jun-21 13:00N 40°43' W 074°02'0 0.0
2018-Jun-21 12:30N 40°43' W 074°02'0 0.0
2018-Jun-21 12:00N 40°43' W 074°02'0 0.0
2018-Jun-21 11:30N 40°43' W 074°02'0 0.3
2018-Jun-21 11:00N 40°44' W 074°02'0 0.1
2018-Jun-21 10:30N 40°44' W 074°02'1 2.9
2018-Jun-21 10:00N 40°42' W 074°02'3 6.4
2018-Jun-21 09:30N 40°39' W 074°04'1 0.1
2018-Jun-20 15:56N 40°38' W 074°04'2 4.5
2018-Jun-20 15:30N 40°40' W 074°03'3 5.6
2018-Jun-20 15:00N 40°42' W 074°00'1 1.9
2018-Jun-20 14:30N 40°41' W 074°01'3 6.3
2018-Jun-20 14:00N 40°38' W 074°04'  
2018-Jun-15 21:33N 40°38' W 074°04'0 0.1
2018-Jun-15 21:30N 40°38' W 074°04'0 0.4
2018-Jun-15 21:00N 40°38' W 074°04'0 0.3
2018-Jun-15 20:18N 40°38' W 074°04'0 0.2
2018-Jun-15 20:00N 40°38' W 074°04'0 0.2
2018-Jun-15 19:30N 40°38' W 074°04'0 0.0
2018-Jun-15 19:00N 40°38' W 074°04'0 0.1
2018-Jun-15 18:29N 40°38' W 074°04'1 2.0
2018-Jun-15 18:00N 40°39' W 074°04'2 4.5
2018-Jun-15 17:30N 40°41' W 074°03'0 0.5
2018-Jun-15 17:00N 40°41' W 074°03'0 0.0
2018-Jun-15 16:30N 40°41' W 074°03'0 0.7
2018-Jun-15 16:00N 40°41' W 074°03'3 5.0
2018-Jun-15 15:30N 40°39' W 074°04'1 1.2
2018-Jun-15 14:54N 40°38' W 074°04'0 0.1
2018-Jun-15 14:30N 40°38' W 074°04'0 0.0
2018-Jun-15 14:00N 40°38' W 074°04'2 3.0
2018-Jun-15 13:29N 40°40' W 074°03'  

Dump ship's entire track history